Time;durP1;ratioP1;P1;durP2;ratioP2;P2;SDS_P1;SDS_P2;PMS_P1;PMS_P2;Temp;Humidity;BMP_temperature;BMP_pressure;BME280_temperature;BME280_humidity;BME280_pressure;Samples;Min_cycle;Max_cycle;Signal;HPM_P1;HPM_P2
2022/03/25 00:02:15;;;;;;;545.97;34.85;;;3.50;99.90;;;;;;4997553;28;20176;-84
2022/03/25 00:04:40;;;;;;;703.92;39.55;;;3.20;99.90;;;;;;5001582;28;20188;-85
2022/03/25 00:07:07;;;;;;;686.38;37.67;;;3.00;99.90;;;;;;4997553;28;20038;-84
2022/03/25 00:09:33;;;;;;;515.20;33.70;;;3.00;99.90;;;;;;4993690;28;20094;-86
2022/03/25 00:11:58;;;;;;;567.50;36.53;;;3.00;99.90;;;;;;5003562;28;20125;-85
2022/03/25 00:14:24;;;;;;;707.28;40.75;;;3.00;99.90;;;;;;4988877;28;20180;-85
2022/03/25 00:16:49;;;;;;;820.38;46.28;;;3.00;99.90;;;;;;5000112;28;20084;-85
2022/03/25 00:19:15;;;;;;;560.13;37.28;;;3.10;99.90;;;;;;4989036;28;20061;-85
2022/03/25 00:21:41;;;;;;;454.88;35.20;;;3.00;99.90;;;;;;4984903;28;20047;-85
2022/03/25 00:24:07;;;;;;;374.67;34.08;;;3.00;99.90;;;;;;4975397;28;20046;-85
2022/03/25 00:26:33;;;;;;;529.33;38.10;;;3.00;99.90;;;;;;5003243;28;20411;-85
2022/03/25 00:28:58;;;;;;;512.53;34.80;;;3.20;99.90;;;;;;4999445;28;20047;-85
2022/03/25 00:31:24;;;;;;;311.73;33.63;;;3.00;99.90;;;;;;4994344;28;20037;-85
2022/03/25 00:33:49;;;;;;;243.40;30.80;;;2.90;99.90;;;;;;5005436;28;20491;-86
2022/03/25 00:36:17;;;;;;;345.08;31.45;;;2.80;99.90;;;;;;4996231;28;20093;-86
2022/03/25 00:38:44;;;;;;;330.83;31.05;;;2.90;99.90;;;;;;5000586;28;20081;-85
2022/03/25 00:41:12;;;;;;;282.88;29.55;;;2.90;99.90;;;;;;5005480;28;20121;-86
2022/03/25 00:43:44;;;;;;;263.83;31.48;;;2.70;99.90;;;;;;5003239;28;20538;-85
2022/03/25 00:46:13;;;;;;;400.88;35.00;;;2.80;99.90;;;;;;5000453;28;20030;-85
2022/03/25 00:48:39;;;;;;;443.50;33.67;;;2.90;99.90;;;;;;4994609;28;20400;-85
2022/03/25 00:51:05;;;;;;;593.28;38.00;;;2.80;99.90;;;;;;5003211;28;20041;-85
2022/03/25 00:53:31;;;;;;;433.05;35.08;;;3.10;99.90;;;;;;5009019;28;20038;-85
2022/03/25 00:55:57;;;;;;;422.23;34.08;;;2.60;99.90;;;;;;5008820;28;20033;-84
2022/03/25 00:58:22;;;;;;;250.10;29.05;;;2.80;99.90;;;;;;4994753;28;21627;-85
2022/03/25 01:00:48;;;;;;;445.05;33.42;;;2.70;99.90;;;;;;5015875;28;20065;-84
2022/03/25 01:03:15;;;;;;;438.40;32.70;;;2.80;99.90;;;;;;4999888;28;20064;-85
2022/03/25 01:05:41;;;;;;;493.27;34.15;;;2.50;99.90;;;;;;4995520;28;20412;-85
2022/03/25 01:08:09;;;;;;;460.40;32.40;;;2.80;99.90;;;;;;4994103;28;20498;-85
2022/03/25 01:10:36;;;;;;;356.52;30.05;;;2.70;99.90;;;;;;5000364;28;20050;-85
2022/03/25 01:13:03;;;;;;;325.65;27.35;;;2.40;99.90;;;;;;5008737;28;20080;-85
2022/03/25 01:15:29;;;;;;;317.98;28.20;;;2.40;99.90;;;;;;4999084;28;20041;-85
2022/03/25 01:17:54;;;;;;;360.38;28.70;;;2.40;99.90;;;;;;4997173;28;20042;-85
2022/03/25 01:20:20;;;;;;;502.00;34.33;;;2.30;99.90;;;;;;5007174;28;20033;-86
2022/03/25 01:22:45;;;;;;;483.23;33.40;;;2.60;99.90;;;;;;4978980;28;20089;-86
2022/03/25 01:25:11;;;;;;;311.27;29.63;;;2.30;99.90;;;;;;4996529;28;20038;-85
2022/03/25 01:27:37;;;;;;;280.00;28.33;;;2.50;99.90;;;;;;5008172;28;20434;-85
2022/03/25 01:30:04;;;;;;;435.65;31.23;;;2.10;99.90;;;;;;4993923;28;20035;-86
2022/03/25 01:32:30;;;;;;;462.77;32.42;;;2.10;99.90;;;;;;4996487;28;20038;-86
2022/03/25 01:34:55;;;;;;;496.88;32.63;;;2.40;99.90;;;;;;4997807;28;20381;-85
2022/03/25 01:37:23;;;;;;;446.20;31.27;;;2.10;99.90;;;;;;4999575;28;20099;-86
2022/03/25 01:39:49;;;;;;;468.17;34.20;;;2.10;99.90;;;;;;5002375;28;20128;-85
2022/03/25 01:42:15;;;;;;;210.10;27.53;;;2.00;99.90;;;;;;4998947;28;20046;-85
2022/03/25 01:44:41;;;;;;;367.23;30.77;;;2.00;99.90;;;;;;4999899;28;20038;-85
2022/03/25 01:47:08;;;;;;;363.87;30.47;;;2.10;99.90;;;;;;4999470;28;20407;-85
2022/03/25 01:49:35;;;;;;;411.03;32.17;;;1.90;99.90;;;;;;5016500;28;20135;-86
2022/03/25 01:52:02;;;;;;;239.53;27.60;;;1.90;99.90;;;;;;5015234;28;20045;-85
2022/03/25 01:54:30;;;;;;;143.13;26.80;;;1.90;99.90;;;;;;4994255;28;20030;-86
2022/03/25 01:57:00;;;;;;;129.43;26.47;;;2.20;99.90;;;;;;5001503;28;20496;-85
2022/03/25 01:59:26;;;;;;;166.83;26.50;;;2.10;99.90;;;;;;4995216;28;20056;-86
2022/03/25 02:01:56;;;;;;;111.47;23.47;;;2.40;99.90;;;;;;4996679;28;20046;-86
2022/03/25 02:04:22;;;;;;;242.93;27.77;;;2.00;99.90;;;;;;4991161;28;20413;-85
2022/03/25 02:06:48;;;;;;;34.47;22.87;;;1.90;99.90;;;;;;4997425;28;20046;-85
2022/03/25 02:09:14;;;;;;;33.63;22.98;;;1.80;99.90;;;;;;5006714;28;20038;-86
2022/03/25 02:11:40;;;;;;;34.40;23.53;;;1.90;99.90;;;;;;5003597;28;20030;-85
2022/03/25 02:14:06;;;;;;;32.17;22.92;;;2.20;99.90;;;;;;4995987;28;20042;-86
2022/03/25 02:16:43;;;;;;;32.63;22.27;;;2.20;99.90;;;;;;4999032;28;20038;-85
2022/03/25 02:19:10;;;;;;;35.60;23.77;;;2.10;99.90;;;;;;4983829;28;20132;-86
2022/03/25 02:21:41;;;;;;;40.72;22.52;;;2.40;99.90;;;;;;5001952;28;20400;-86
2022/03/25 02:24:09;;;;;;;106.70;24.70;;;2.00;99.90;;;;;;4993356;28;20484;-86
2022/03/25 02:26:36;;;;;;;33.90;23.97;;;1.90;99.90;;;;;;4997713;28;20061;-86
2022/03/25 02:29:05;;;;;;;148.80;24.87;;;1.90;99.90;;;;;;5005347;28;20535;-86
2022/03/25 02:31:30;;;;;;;171.98;25.77;;;1.80;99.90;;;;;;5000437;28;20447;-86
2022/03/25 02:33:59;;;;;;;148.33;24.37;;;1.80;99.90;;;;;;5001164;28;20036;-86
2022/03/25 02:36:25;;;;;;;234.93;25.95;;;1.80;99.90;;;;;;4999512;28;20050;-86
2022/03/25 02:38:50;;;;;;;178.57;26.57;;;1.70;99.90;;;;;;5001674;28;20702;-86
2022/03/25 02:41:16;;;;;;;514.17;32.17;;;1.60;99.90;;;;;;4994472;28;20034;-86
2022/03/25 02:43:42;;;;;;;383.73;30.70;;;1.50;99.90;;;;;;5003591;28;20029;-86
2022/03/25 02:46:07;;;;;;;303.10;29.40;;;1.40;99.90;;;;;;4996963;28;20037;-86
2022/03/25 02:48:34;;;;;;;420.87;30.80;;;1.30;99.90;;;;;;5004882;28;20184;-87
2022/03/25 02:50:59;;;;;;;563.70;32.33;;;1.20;99.90;;;;;;4999207;28;20393;-86
2022/03/25 02:53:25;;;;;;;450.07;29.63;;;1.10;99.90;;;;;;5003448;28;20034;-87
2022/03/25 02:55:51;;;;;;;620.73;34.93;;;1.10;99.90;;;;;;4995284;28;20121;-86
2022/03/25 02:58:17;;;;;;;584.10;32.93;;;1.00;99.90;;;;;;5000422;28;20088;-86
2022/03/25 03:00:43;;;;;;;463.90;31.17;;;1.00;99.90;;;;;;5001470;28;20041;-86
2022/03/25 03:03:09;;;;;;;435.73;29.03;;;0.90;99.90;;;;;;5002179;28;20130;-86
2022/03/25 03:05:34;;;;;;;277.37;26.23;;;0.90;99.90;;;;;;5009575;28;20121;-86
2022/03/25 03:08:01;;;;;;;370.47;27.07;;;0.80;99.90;;;;;;5005285;28;20039;-86
2022/03/25 03:10:27;;;;;;;436.07;30.03;;;1.20;99.90;;;;;;4997156;28;20045;-87
2022/03/25 03:12:53;;;;;;;335.83;27.70;;;0.90;99.90;;;;;;5005277;28;20035;-87
2022/03/25 03:15:21;;;;;;;251.57;26.40;;;0.90;99.90;;;;;;4994923;28;20072;-87
2022/03/25 03:17:47;;;;;;;360.17;28.57;;;0.80;99.90;;;;;;4991641;28;20036;-87
2022/03/25 03:20:14;;;;;;;470.97;31.67;;;0.90;99.90;;;;;;4972761;28;20047;-88
2022/03/25 03:22:41;;;;;;;449.33;30.77;;;0.90;99.90;;;;;;4989781;28;20113;-87
2022/03/25 03:25:08;;;;;;;536.50;31.73;;;0.80;99.90;;;;;;4981382;28;20030;-88
2022/03/25 03:27:33;;;;;;;385.73;27.30;;;0.80;99.90;;;;;;5000681;28;20048;-87
2022/03/25 03:29:59;;;;;;;301.30;27.27;;;0.90;99.90;;;;;;5007041;28;20046;-88
2022/03/25 03:32:28;;;;;;;333.60;27.27;;;0.90;99.90;;;;;;5005439;28;20042;-88
2022/03/25 03:34:54;;;;;;;516.53;31.97;;;1.00;99.90;;;;;;5002527;28;20038;-87
2022/03/25 03:37:20;;;;;;;493.90;31.97;;;1.00;99.90;;;;;;5001166;28;20080;-87
2022/03/25 03:39:47;;;;;;;411.77;30.47;;;0.90;99.90;;;;;;5007219;28;20049;-86
2022/03/25 03:42:12;;;;;;;401.13;29.87;;;1.10;99.90;;;;;;5006618;28;20414;-88
2022/03/25 03:44:38;;;;;;;438.37;30.83;;;0.90;99.90;;;;;;5011607;28;20125;-87
2022/03/25 03:47:06;;;;;;;385.43;29.20;;;0.80;99.90;;;;;;4997953;28;20030;-87
2022/03/25 03:49:32;;;;;;;471.57;31.30;;;0.80;99.90;;;;;;5005452;28;20037;-87
2022/03/25 03:51:58;;;;;;;291.73;26.17;;;0.80;99.90;;;;;;5004915;28;20037;-87
2022/03/25 03:54:23;;;;;;;525.67;30.63;;;0.70;99.90;;;;;;5000349;28;20088;-87
2022/03/25 03:56:49;;;;;;;439.90;30.63;;;0.70;99.90;;;;;;5000049;28;20464;-86
2022/03/25 03:59:14;;;;;;;603.77;33.97;;;0.70;99.90;;;;;;4997674;28;20038;-87
2022/03/25 04:01:41;;;;;;;637.17;35.90;;;0.70;99.90;;;;;;4996229;28;20053;-87
2022/03/25 04:04:07;;;;;;;407.23;28.00;;;1.20;99.90;;;;;;4993785;28;20453;-87
2022/03/25 04:06:33;;;;;;;361.83;28.30;;;0.60;99.90;;;;;;4981539;28;20120;-87
2022/03/25 04:08:58;;;;;;;222.53;25.97;;;0.50;99.90;;;;;;4987194;28;20065;-88
2022/03/25 04:11:24;;;;;;;409.37;29.83;;;0.80;99.90;;;;;;5010608;28;20181;-88
2022/03/25 04:13:50;;;;;;;514.93;29.67;;;0.50;99.90;;;;;;4998479;28;20049;-88
2022/03/25 04:16:16;;;;;;;384.23;28.13;;;0.40;99.90;;;;;;4996877;28;20034;-88
2022/03/25 04:18:41;;;;;;;478.47;30.47;;;0.40;99.90;;;;;;5013339;28;20041;-88
2022/03/25 04:21:07;;;;;;;559.60;33.17;;;0.40;99.90;;;;;;5004197;28;20133;-87
2022/03/25 04:23:33;;;;;;;473.50;30.87;;;0.80;99.90;;;;;;5006907;28;20057;-89
2022/03/25 04:25:58;;;;;;;328.27;27.37;;;0.30;99.90;;;;;;5004347;28;20042;-88
2022/03/25 04:28:24;;;;;;;494.43;29.67;;;0.30;99.90;;;;;;5004594;28;20057;-88
2022/03/25 04:30:49;;;;;;;329.10;26.60;;;0.90;99.90;;;;;;5008215;28;20034;-89
2022/03/25 04:33:15;;;;;;;296.97;24.67;;;0.50;99.90;;;;;;5011389;28;20030;-89
2022/03/25 04:35:41;;;;;;;491.83;30.53;;;0.70;99.90;;;;;;5005099;28;20120;-88
2022/03/25 04:38:07;;;;;;;202.77;23.47;;;0.50;99.90;;;;;;5004589;28;20073;-89
2022/03/25 04:40:34;;;;;;;221.50;25.50;;;0.60;99.90;;;;;;5003831;28;20060;-88
2022/03/25 04:43:01;;;;;;;186.57;24.53;;;0.80;99.90;;;;;;5004810;28;20527;-88
2022/03/25 04:45:28;;;;;;;192.00;23.77;;;1.50;99.90;;;;;;5001787;28;20044;-89
2022/03/25 04:47:54;;;;;;;145.97;22.53;;;0.60;99.90;;;;;;5006896;28;20172;-89
2022/03/25 04:50:21;;;;;;;185.60;23.17;;;1.40;99.90;;;;;;4998257;28;20045;-88
2022/03/25 04:52:48;;;;;;;258.70;24.43;;;0.80;99.90;;;;;;4997184;28;20113;-88
2022/03/25 04:55:14;;;;;;;111.97;21.20;;;0.30;99.90;;;;;;4998975;28;20038;-89
2022/03/25 04:57:41;;;;;;;96.03;22.23;;;0.50;99.90;;;;;;5005529;28;20042;-89
2022/03/25 05:00:09;;;;;;;34.50;21.87;;;0.50;99.90;;;;;;5008195;28;20041;-89
2022/03/25 05:02:35;;;;;;;31.70;20.73;;;0.50;99.90;;;;;;5011223;28;20041;-89
2022/03/25 05:05:02;;;;;;;32.30;21.27;;;0.50;99.90;;;;;;5010649;28;20045;-89
2022/03/25 05:07:29;;;;;;;42.47;21.33;;;1.10;99.90;;;;;;5008124;28;20037;-89
2022/03/25 05:10:00;;;;;;;162.67;23.60;;;0.90;99.90;;;;;;5001828;28;20041;-89
2022/03/25 05:12:27;;;;;;;66.97;21.87;;;1.30;99.90;;;;;;4998945;28;20034;-89
2022/03/25 05:14:53;;;;;;;56.80;20.37;;;1.10;99.90;;;;;;4997733;28;20041;-89
2022/03/25 05:17:20;;;;;;;94.50;22.10;;;0.60;99.90;;;;;;4993845;28;20031;-88
2022/03/25 05:19:45;;;;;;;69.60;20.60;;;1.30;99.90;;;;;;4994380;28;20423;-89
2022/03/25 05:22:11;;;;;;;144.73;20.97;;;0.90;99.90;;;;;;5007366;28;20049;-89
2022/03/25 05:24:37;;;;;;;169.83;24.43;;;0.20;99.90;;;;;;5013540;28;20057;-89
2022/03/25 05:27:11;;;;;;;335.90;26.07;;;0.50;99.90;;;;;;5013849;28;20119;-89
2022/03/25 05:29:36;;;;;;;146.60;21.13;;;0.00;99.90;;;;;;5013701;28;20492;-89
2022/03/25 05:32:02;;;;;;;32.10;20.10;;;1.20;99.90;;;;;;5013177;28;20099;-89
2022/03/25 05:34:28;;;;;;;64.07;20.30;;;0.30;99.90;;;;;;4997578;28;20097;-89
2022/03/25 05:36:53;;;;;;;114.00;20.80;;;0.10;99.90;;;;;;4994104;28;20042;-89
2022/03/25 05:39:20;;;;;;;526.73;28.90;;;0.20;99.90;;;;;;5008102;28;20048;-89
2022/03/25 05:41:45;;;;;;;367.97;28.00;;;0.30;99.90;;;;;;5009788;28;20050;-90
2022/03/25 05:44:11;;;;;;;431.07;28.13;;;0.10;99.90;;;;;;4998877;28;20042;-89
2022/03/25 05:46:38;;;;;;;332.20;24.67;;;0.10;99.90;;;;;;5012292;28;20048;-88
2022/03/25 05:49:04;;;;;;;350.90;26.00;;;1.10;99.90;;;;;;5012253;28;20492;-90
2022/03/25 05:51:31;;;;;;;290.73;25.33;;;0.20;99.90;;;;;;5013276;28;20411;-89
2022/03/25 05:53:57;;;;;;;702.30;37.50;;;-0.30;99.90;;;;;;5006719;28;20030;-89
2022/03/25 05:56:22;;;;;;;596.97;33.67;;;0.20;99.90;;;;;;5010933;28;20044;-89
2022/03/25 05:58:48;;;;;;;415.97;29.50;;;1.00;99.90;;;;;;5014513;28;20042;-89
2022/03/25 06:01:14;;;;;;;385.40;28.33;;;0.20;99.90;;;;;;5012638;28;20413;-89
2022/03/25 06:03:41;;;;;;;339.13;26.93;;;0.40;99.90;;;;;;5005170;28;20037;-89
2022/03/25 06:06:07;;;;;;;124.97;24.03;;;0.60;99.90;;;;;;5012363;28;20082;-89
2022/03/25 06:08:33;;;;;;;122.30;23.37;;;0.30;99.90;;;;;;5012539;28;20046;-89
2022/03/25 06:11:00;;;;;;;153.97;23.90;;;1.10;99.90;;;;;;5012223;28;20033;-88
2022/03/25 06:13:30;;;;;;;246.20;25.90;;;0.40;99.90;;;;;;5005364;28;20030;-88
2022/03/25 06:15:57;;;;;;;59.10;22.93;;;1.10;99.90;;;;;;4996372;28;20121;-88
2022/03/25 06:18:23;;;;;;;34.37;22.27;;;0.70;99.90;;;;;;5003706;28;20453;-88
2022/03/25 06:20:49;;;;;;;36.57;23.10;;;0.60;99.90;;;;;;4993143;28;20080;-88
2022/03/25 06:23:14;;;;;;;33.90;22.03;;;0.80;99.90;;;;;;4991817;28;20034;-88
2022/03/25 06:25:41;;;;;;;36.83;22.80;;;1.10;99.90;;;;;;5003427;28;20034;-88
2022/03/25 06:28:07;;;;;;;36.77;23.73;;;1.20;99.90;;;;;;4991879;28;20039;-87
2022/03/25 06:30:36;;;;;;;39.83;25.63;;;2.00;99.90;;;;;;5002684;28;20475;-88
2022/03/25 06:33:09;;;;;;;38.60;24.67;;;1.40;99.90;;;;;;5008672;28;20030;-88
2022/03/25 06:35:36;;;;;;;41.22;24.55;;;1.90;99.90;;;;;;4997531;28;20528;-88
2022/03/25 06:38:03;;;;;;;42.00;26.07;;;1.80;99.90;;;;;;5001834;28;20030;-88
2022/03/25 06:40:29;;;;;;;44.93;26.73;;;1.70;99.90;;;;;;5008161;28;20424;-88
2022/03/25 06:42:57;;;;;;;42.33;26.03;;;2.10;99.90;;;;;;4996654;28;20133;-88
2022/03/25 06:45:23;;;;;;;45.13;27.13;;;1.90;99.90;;;;;;5013892;28;20042;-89
2022/03/25 06:47:49;;;;;;;49.20;29.13;;;2.70;99.90;;;;;;4997623;28;20041;-89
2022/03/25 06:50:16;;;;;;;51.23;29.67;;;2.20;99.90;;;;;;4993764;28;20039;-88
2022/03/25 06:52:42;;;;;;;48.40;28.60;;;2.30;99.90;;;;;;4998902;28;20046;-88
2022/03/25 06:55:09;;;;;;;51.03;29.77;;;2.40;99.90;;;;;;4997400;28;20488;-89
2022/03/25 06:57:35;;;;;;;51.47;30.03;;;2.50;99.90;;;;;;4995695;28;20038;-89
2022/03/25 07:00:01;;;;;;;50.77;29.53;;;2.60;99.90;;;;;;4993076;28;20038;-88
2022/03/25 07:02:26;;;;;;;54.77;32.60;;;2.70;99.90;;;;;;5004015;28;20049;-87
2022/03/25 07:04:52;;;;;;;53.40;30.53;;;2.80;99.90;;;;;;5003686;28;20088;-87
2022/03/25 07:07:21;;;;;;;51.87;31.17;;;3.00;99.90;;;;;;5002074;28;20403;-87
2022/03/25 07:09:47;;;;;;;57.20;33.57;;;3.10;99.90;;;;;;5003278;28;20091;-86
2022/03/25 07:12:15;;;;;;;62.00;34.60;;;3.30;99.90;;;;;;5008829;28;20037;-86
2022/03/25 07:14:40;;;;;;;66.60;36.37;;;3.40;99.90;;;;;;4990635;28;20034;-86
2022/03/25 07:17:06;;;;;;;62.33;35.20;;;3.50;99.90;;;;;;5004218;28;20115;-86
2022/03/25 07:19:31;;;;;;;60.67;35.20;;;3.70;99.90;;;;;;5010248;28;20026;-86
2022/03/25 07:21:57;;;;;;;65.70;36.25;;;3.80;99.90;;;;;;5005074;28;20125;-85
2022/03/25 07:24:23;;;;;;;58.97;35.28;;;4.10;99.90;;;;;;5001549;28;20030;-85
2022/03/25 07:26:48;;;;;;;67.60;36.60;;;4.30;99.90;;;;;;5002360;28;20114;-86
2022/03/25 07:29:14;;;;;;;63.75;35.92;;;4.40;99.90;;;;;;4986383;28;20042;-85
2022/03/25 07:31:40;;;;;;;68.32;38.35;;;4.70;99.90;;;;;;4979665;28;20038;-86
2022/03/25 07:34:06;;;;;;;63.55;36.10;;;4.90;99.90;;;;;;4981456;28;20037;-85
2022/03/25 07:36:32;;;;;;;65.20;36.95;;;5.10;99.90;;;;;;4975099;28;20047;-85
2022/03/25 07:38:58;;;;;;;65.68;37.42;;;5.30;99.90;;;;;;4986679;28;20125;-86
2022/03/25 07:41:23;;;;;;;67.50;37.75;;;5.50;99.90;;;;;;4971875;28;20045;-87
2022/03/25 07:43:49;;;;;;;65.65;36.28;;;5.70;99.90;;;;;;4979338;28;20089;-85
2022/03/25 07:46:16;;;;;;;59.47;35.00;;;5.90;99.90;;;;;;4971689;28;20039;-85
2022/03/25 07:48:42;;;;;;;59.95;35.38;;;6.10;99.90;;;;;;4977798;28;20053;-85
2022/03/25 07:51:08;;;;;;;56.85;34.35;;;6.30;99.90;;;;;;4984023;28;20043;-86
2022/03/25 07:53:34;;;;;;;62.20;35.05;;;6.20;99.90;;;;;;4974569;28;20390;-85
2022/03/25 07:56:00;;;;;;;58.53;35.67;;;6.60;99.90;;;;;;4986764;28;20049;-85
2022/03/25 07:58:27;;;;;;;55.80;33.65;;;6.80;99.90;;;;;;5002713;28;20038;-85
2022/03/25 08:00:53;;;;;;;56.20;34.20;;;6.90;99.90;;;;;;4991617;28;20068;-87
2022/03/25 08:03:19;;;;;;;58.00;33.85;;;7.20;99.90;;;;;;5018987;28;20623;-85
2022/03/25 08:05:50;;;;;;;61.03;32.53;;;7.40;99.90;;;;;;5011206;28;20049;-86
2022/03/25 08:08:19;;;;;;;55.60;32.15;;;7.60;99.90;;;;;;5007181;28;20183;-85
2022/03/25 08:10:45;;;;;;;49.60;31.27;;;7.80;99.90;;;;;;4995230;28;20042;-86
2022/03/25 08:13:11;;;;;;;49.22;29.10;;;8.00;99.90;;;;;;5002624;28;20061;-86
2022/03/25 08:15:37;;;;;;;51.75;28.40;;;8.20;99.90;;;;;;5005685;28;20124;-86
2022/03/25 08:18:10;;;;;;;45.38;28.38;;;8.40;99.90;;;;;;5002175;28;20046;-86
2022/03/25 08:20:41;;;;;;;47.47;26.10;;;8.60;99.90;;;;;;4992506;28;20050;-85
2022/03/25 08:23:13;;;;;;;40.80;24.30;;;8.80;99.90;;;;;;5010156;28;20374;-85
2022/03/25 08:28:26;;;;;;;38.45;23.48;;;9.10;99.90;;;;;;4993466;28;20046;-85
2022/03/25 08:30:52;;;;;;;39.88;21.73;;;9.30;99.90;;;;;;4995106;28;20113;-86
2022/03/25 08:33:18;;;;;;;39.50;23.02;;;9.30;99.90;;;;;;4995160;28;20515;-86
2022/03/25 08:35:45;;;;;;;41.58;24.27;;;9.30;99.90;;;;;;4993720;28;20052;-86
2022/03/25 08:38:12;;;;;;;37.72;24.35;;;9.40;99.90;;;;;;4993827;28;20049;-86
2022/03/25 08:40:38;;;;;;;38.13;22.05;;;9.50;99.90;;;;;;4994688;28;20045;-86
2022/03/25 08:43:05;;;;;;;34.70;20.65;;;9.50;99.90;;;;;;4994828;28;20042;-86
2022/03/25 08:45:32;;;;;;;35.10;19.65;;;9.50;99.90;;;;;;4990346;28;20045;-86
2022/03/25 08:47:59;;;;;;;36.42;20.58;;;9.60;99.90;;;;;;4993133;28;20077;-87
2022/03/25 08:50:25;;;;;;;33.40;19.50;;;9.80;99.90;;;;;;4995035;28;20038;-86
2022/03/25 08:52:52;;;;;;;36.70;20.48;;;9.90;99.90;;;;;;5009893;28;20152;-86
2022/03/25 08:55:19;;;;;;;36.85;21.70;;;10.10;99.90;;;;;;4993112;28;20042;-86
2022/03/25 08:57:46;;;;;;;34.15;20.13;;;10.30;99.90;;;;;;4997260;28;20042;-86
2022/03/25 09:00:14;;;;;;;35.83;21.52;;;10.40;99.90;;;;;;4993499;28;20089;-86
2022/03/25 09:02:42;;;;;;;32.97;21.13;;;10.60;99.90;;;;;;5009887;28;20085;-86
2022/03/25 09:05:09;;;;;;;32.08;20.10;;;10.70;99.90;;;;;;4993430;28;20053;-86
2022/03/25 09:07:36;;;;;;;34.58;20.45;;;10.80;99.90;;;;;;4994827;28;20400;-86
2022/03/25 09:10:03;;;;;;;30.77;19.88;;;10.90;99.90;;;;;;4994650;28;20042;-87
2022/03/25 09:12:29;;;;;;;32.25;19.05;;;11.00;99.90;;;;;;4993235;28;20078;-86
2022/03/25 09:14:54;;;;;;;32.63;20.27;;;11.10;99.90;;;;;;4998638;28;20508;-86
2022/03/25 09:17:20;;;;;;;28.92;19.70;;;11.30;99.90;;;;;;5007534;28;20072;-87
2022/03/25 09:19:45;;;;;;;31.77;19.60;;;11.30;99.90;;;;;;5004902;28;20046;-85
2022/03/25 09:22:11;;;;;;;29.20;19.25;;;11.40;99.90;;;;;;5005114;28;20038;-87
2022/03/25 09:24:37;;;;;;;30.92;19.88;;;11.50;99.90;;;;;;4972815;28;20043;-86
2022/03/25 09:27:03;;;;;;;31.27;19.00;;;11.60;99.90;;;;;;4974619;28;20042;-87
2022/03/25 09:29:28;;;;;;;28.90;18.92;;;11.70;99.90;;;;;;4992693;28;20069;-86
2022/03/25 09:31:54;;;;;;;25.58;17.08;;;11.80;99.90;;;;;;4993672;28;20046;-87
2022/03/25 09:37:04;;;;;;;;;;;12.00;99.90;;;;;;5003052;28;20058;-87
2022/03/25 09:39:30;;;;;;;27.92;18.13;;;12.20;99.90;;;;;;4992810;28;19918;-87
2022/03/25 09:41:58;;;;;;;31.30;18.02;;;12.30;99.90;;;;;;4992409;28;20050;-87
2022/03/25 09:44:24;;;;;;;25.45;17.25;;;12.40;99.90;;;;;;5005343;28;20045;-86
2022/03/25 09:46:50;;;;;;;33.72;18.48;;;12.50;99.90;;;;;;4993360;28;20428;-87
2022/03/25 09:49:17;;;;;;;28.02;17.17;;;12.70;99.90;;;;;;5004639;28;20055;-87
2022/03/25 09:51:44;;;;;;;26.65;16.48;;;12.80;99.90;;;;;;4981412;28;20508;-86
2022/03/25 09:54:13;;;;;;;26.27;15.45;;;12.90;99.90;;;;;;4976908;28;20045;-87
2022/03/25 09:56:40;;;;;;;30.83;17.25;;;13.10;99.90;;;;;;4966416;28;20174;-87
2022/03/25 09:59:06;;;;;;;27.65;16.67;;;13.20;99.90;;;;;;4989862;28;20092;-87
2022/03/25 10:01:32;;;;;;;29.58;17.80;;;13.30;99.90;;;;;;4986584;28;20508;-87
2022/03/25 10:03:58;;;;;;;34.92;19.38;;;13.30;99.90;;;;;;4989610;28;20038;-87
2022/03/25 10:06:24;;;;;;;30.60;18.98;;;13.40;99.90;;;;;;4981201;28;20038;-87
2022/03/25 10:09:02;;;;;;;34.00;19.52;;;13.50;99.90;;;;;;4979511;28;20421;-87
2022/03/25 10:11:32;;;;;;;33.85;20.92;;;13.60;99.90;;;;;;4986563;28;20042;-87
2022/03/25 10:14:23;;;;;;;36.90;20.77;;;13.70;99.90;;;;;;4973535;28;20058;-87
2022/03/25 10:16:53;;;;;;;32.15;20.17;;;13.80;97.60;;;;;;4986726;28;20219;-87
2022/03/25 10:19:24;;;;;;;32.10;20.02;;;13.90;99.10;;;;;;4992687;28;20046;-88
2022/03/25 10:21:55;;;;;;;34.58;20.48;;;13.90;99.20;;;;;;4988310;28;20049;-87
2022/03/25 10:24:45;;;;;;;33.15;20.45;;;14.00;99.30;;;;;;4988444;28;20508;-87
2022/03/25 10:27:11;;;;;;;35.08;21.48;;;14.20;98.90;;;;;;4992387;28;20456;-88
2022/03/25 10:29:37;;;;;;;34.33;21.05;;;14.30;99.30;;;;;;4991452;28;20046;-87
2022/03/25 10:32:07;;;;;;;37.85;21.85;;;14.40;98.90;;;;;;4992689;28;20424;-88
2022/03/25 10:34:35;;;;;;;31.10;19.80;;;14.50;98.30;;;;;;4991976;28;20092;-88
2022/03/25 10:37:04;;;;;;;32.55;20.50;;;14.70;98.50;;;;;;4990787;28;20061;-87
2022/03/25 10:39:30;;;;;;;33.28;21.67;;;14.80;98.70;;;;;;4991293;28;20057;-87
2022/03/25 10:42:02;;;;;;;34.15;20.17;;;14.90;98.20;;;;;;4991104;28;20046;-87
2022/03/25 10:44:34;;;;;;;30.40;19.17;;;15.00;96.70;;;;;;4992076;28;20397;-87
2022/03/25 10:47:00;;;;;;;29.52;18.17;;;15.10;96.90;;;;;;4991128;28;20599;-87
2022/03/25 10:49:36;;;;;;;31.38;20.48;;;15.20;97.30;;;;;;4991221;28;20069;-89
2022/03/25 10:52:03;;;;;;;30.08;18.73;;;15.20;96.80;;;;;;4991275;28;20447;-88
2022/03/25 10:54:29;;;;;;;35.83;19.42;;;15.40;96.90;;;;;;4990871;28;20038;-87
2022/03/25 10:56:57;;;;;;;34.60;19.15;;;15.40;96.10;;;;;;4991023;28;20558;-86
2022/03/25 10:59:29;;;;;;;30.27;18.80;;;15.50;95.80;;;;;;4991083;28;20141;-87
2022/03/25 11:02:07;;;;;;;27.05;17.25;;;15.50;94.70;;;;;;4991010;28;20489;-86
2022/03/25 11:04:33;;;;;;;29.20;18.13;;;15.60;94.80;;;;;;4990610;28;20516;-87
2022/03/25 11:07:02;;;;;;;31.27;17.85;;;15.50;93.40;;;;;;4990823;28;20046;-87
2022/03/25 11:09:29;;;;;;;33.13;19.15;;;15.60;93.10;;;;;;4990828;28;20113;-87
2022/03/25 11:11:56;;;;;;;30.65;18.98;;;15.70;93.50;;;;;;4990903;28;20042;-87
2022/03/25 11:14:22;;;;;;;31.52;18.45;;;15.90;93.80;;;;;;4992341;28;20416;-87
2022/03/25 11:16:53;;;;;;;29.52;19.38;;;15.90;93.00;;;;;;4990740;28;20038;-87
2022/03/25 11:19:20;;;;;;;30.98;20.25;;;16.10;93.30;;;;;;4991901;28;20050;-87
2022/03/25 11:21:47;;;;;;;35.78;20.25;;;16.20;93.40;;;;;;4990697;28;20070;-87
2022/03/25 11:24:25;;;;;;;32.80;20.40;;;16.30;93.30;;;;;;4990516;28;20078;-86
2022/03/25 11:26:53;;;;;;;32.95;18.95;;;16.40;92.40;;;;;;4990702;28;20061;-86
2022/03/25 11:29:23;;;;;;;29.60;19.08;;;16.60;92.60;;;;;;4991837;28;20369;-86
2022/03/25 11:32:06;;;;;;;32.38;20.20;;;16.70;92.60;;;;;;4990854;28;20051;-87
2022/03/25 11:34:33;;;;;;;30.40;20.40;;;16.80;91.20;;;;;;4990363;28;20058;-87
2022/03/25 11:37:14;;;;;;;34.40;20.52;;;16.90;92.30;;;;;;4990626;28;20057;-87
2022/03/25 11:39:39;;;;;;;29.58;19.77;;;17.00;90.50;;;;;;4991800;28;20512;-87
2022/03/25 11:42:06;;;;;;;32.03;20.35;;;17.10;91.70;;;;;;4990391;28;20042;-87
2022/03/25 11:44:33;;;;;;;30.85;18.95;;;17.20;90.60;;;;;;4990903;28;20058;-86
2022/03/25 11:46:59;;;;;;;36.72;22.30;;;17.20;90.20;;;;;;4994490;28;20073;-87
2022/03/25 11:49:26;;;;;;;35.63;21.08;;;17.10;89.10;;;;;;4994232;28;20523;-87
2022/03/25 11:51:52;;;;;;;31.45;20.77;;;17.30;90.40;;;;;;4995334;28;20536;-87
2022/03/25 11:54:38;;;;;;;34.72;20.52;;;17.40;85.80;;;;;;4994262;28;20065;-87
2022/03/25 11:57:05;;;;;;;27.98;19.35;;;17.60;85.20;;;;;;4993958;28;20085;-87
2022/03/25 12:00:11;;;;;;;30.35;20.05;;;17.70;88.30;;;;;;4995315;28;20039;-87
2022/03/25 12:02:38;;;;;;;33.55;20.50;;;17.80;83.80;;;;;;4976825;28;20047;-85
2022/03/25 12:05:25;;;;;;;33.47;19.10;;;17.90;88.20;;;;;;4988313;28;20073;-87
2022/03/25 12:08:25;;;;;;;27.60;18.88;;;18.00;87.60;;;;;;4996404;28;20051;-86
2022/03/25 12:10:52;;;;;;;27.30;17.05;;;18.00;83.10;;;;;;4995152;28;20555;-86
2022/03/25 12:13:19;;;;;;;28.23;17.05;;;18.10;79.80;;;;;;4994057;28;20085;-86
2022/03/25 12:15:52;;;;;;;28.27;17.23;;;18.00;84.70;;;;;;4994542;28;20038;-87
2022/03/25 12:18:40;;;;;;;30.77;16.90;;;17.90;83.50;;;;;;4992606;28;20049;-86
2022/03/25 12:21:21;;;;;;;30.33;15.90;;;17.80;81.20;;;;;;4993913;28;20082;-86
2022/03/25 12:23:58;;;;;;;27.42;15.45;;;18.10;79.00;;;;;;4994101;28;20046;-87
2022/03/25 12:26:31;;;;;;;24.33;15.25;;;18.20;80.10;;;;;;4994968;28;20038;-86
2022/03/25 12:28:57;;;;;;;30.60;16.65;;;18.00;75.50;;;;;;4993443;28;20069;-86
2022/03/25 12:31:24;;;;;;;27.42;15.52;;;18.10;80.10;;;;;;4994962;28;20396;-86
2022/03/25 12:34:02;;;;;;;24.73;15.13;;;18.30;80.70;;;;;;4993222;28;20042;-86
2022/03/25 12:36:37;;;;;;;23.70;14.25;;;18.30;77.40;;;;;;4993538;28;20046;-86
2022/03/25 12:39:02;;;;;;;23.05;14.30;;;18.60;76.50;;;;;;4993229;28;20042;-86